sensor_id;sensor_type;location;lat;lon;timestamp;P1;durP1;ratioP1;P2;durP2;ratioP2
16115;SDS011;8162;47.104;15.432;2023-02-15T00:00:38;24.03;;;17.40;;
16115;SDS011;8162;47.104;15.432;2023-02-15T00:03:39;26.00;;;18.13;;
16115;SDS011;8162;47.104;15.432;2023-02-15T00:06:40;29.40;;;21.27;;
16115;SDS011;8162;47.104;15.432;2023-02-15T00:09:42;31.23;;;21.07;;
16115;SDS011;8162;47.104;15.432;2023-02-15T00:12:43;33.40;;;18.73;;
16115;SDS011;8162;47.104;15.432;2023-02-15T00:15:44;31.90;;;20.87;;
16115;SDS011;8162;47.104;15.432;2023-02-15T00:18:45;27.50;;;18.63;;
16115;SDS011;8162;47.104;15.432;2023-02-15T00:21:47;29.27;;;19.37;;
16115;SDS011;8162;47.104;15.432;2023-02-15T00:24:48;26.17;;;16.20;;
16115;SDS011;8162;47.104;15.432;2023-02-15T00:27:50;28.63;;;20.27;;
16115;SDS011;8162;47.104;15.432;2023-02-15T00:30:51;27.87;;;20.03;;
16115;SDS011;8162;47.104;15.432;2023-02-15T00:33:52;27.83;;;20.00;;
16115;SDS011;8162;47.104;15.432;2023-02-15T00:36:53;22.57;;;16.97;;
16115;SDS011;8162;47.104;15.432;2023-02-15T00:39:54;28.70;;;19.47;;
16115;SDS011;8162;47.104;15.432;2023-02-15T00:42:55;25.23;;;17.60;;
16115;SDS011;8162;47.104;15.432;2023-02-15T00:45:56;29.43;;;19.03;;
16115;SDS011;8162;47.104;15.432;2023-02-15T00:48:57;29.93;;;19.17;;
16115;SDS011;8162;47.104;15.432;2023-02-15T00:51:58;25.83;;;17.63;;
16115;SDS011;8162;47.104;15.432;2023-02-15T00:54:59;27.90;;;19.80;;
16115;SDS011;8162;47.104;15.432;2023-02-15T00:58:00;29.33;;;20.33;;
16115;SDS011;8162;47.104;15.432;2023-02-15T01:01:03;28.93;;;18.67;;
16115;SDS011;8162;47.104;15.432;2023-02-15T01:04:05;24.43;;;17.60;;
16115;SDS011;8162;47.104;15.432;2023-02-15T01:07:06;26.57;;;18.87;;
16115;SDS011;8162;47.104;15.432;2023-02-15T01:10:07;25.73;;;18.33;;
16115;SDS011;8162;47.104;15.432;2023-02-15T01:13:08;25.03;;;18.50;;
16115;SDS011;8162;47.104;15.432;2023-02-15T01:16:09;20.93;;;16.33;;
16115;SDS011;8162;47.104;15.432;2023-02-15T01:19:10;27.93;;;18.00;;
16115;SDS011;8162;47.104;15.432;2023-02-15T01:22:11;23.80;;;17.90;;
16115;SDS011;8162;47.104;15.432;2023-02-15T01:25:12;23.53;;;17.53;;
16115;SDS011;8162;47.104;15.432;2023-02-15T01:28:13;25.10;;;18.03;;
16115;SDS011;8162;47.104;15.432;2023-02-15T01:31:16;24.60;;;17.57;;
16115;SDS011;8162;47.104;15.432;2023-02-15T01:34:17;23.53;;;16.80;;
16115;SDS011;8162;47.104;15.432;2023-02-15T01:37:18;25.33;;;17.93;;
16115;SDS011;8162;47.104;15.432;2023-02-15T01:40:19;24.20;;;18.07;;
16115;SDS011;8162;47.104;15.432;2023-02-15T01:43:20;27.43;;;18.97;;
16115;SDS011;8162;47.104;15.432;2023-02-15T01:46:22;27.97;;;18.43;;
16115;SDS011;8162;47.104;15.432;2023-02-15T01:49:23;28.90;;;19.07;;
16115;SDS011;8162;47.104;15.432;2023-02-15T01:52:26;24.40;;;16.80;;
16115;SDS011;8162;47.104;15.432;2023-02-15T01:55:29;23.63;;;16.83;;
16115;SDS011;8162;47.104;15.432;2023-02-15T01:58:31;27.17;;;19.47;;
16115;SDS011;8162;47.104;15.432;2023-02-15T02:01:32;23.47;;;17.17;;
16115;SDS011;8162;47.104;15.432;2023-02-15T02:04:35;22.87;;;17.17;;
16115;SDS011;8162;47.104;15.432;2023-02-15T02:07:40;22.43;;;17.10;;
16115;SDS011;8162;47.104;15.432;2023-02-15T02:10:42;24.83;;;16.83;;
16115;SDS011;8162;47.104;15.432;2023-02-15T02:13:43;24.60;;;18.13;;
16115;SDS011;8162;47.104;15.432;2023-02-15T02:26:22;25.10;;;16.40;;
16115;SDS011;8162;47.104;15.432;2023-02-15T02:39:07;22.70;;;16.67;;
16115;SDS011;8162;47.104;15.432;2023-02-15T02:42:14;20.73;;;15.73;;
16115;SDS011;8162;47.104;15.432;2023-02-15T02:45:37;23.50;;;17.47;;
16115;SDS011;8162;47.104;15.432;2023-02-15T02:48:41;26.50;;;17.77;;
16115;SDS011;8162;47.104;15.432;2023-02-15T02:51:42;27.33;;;17.40;;
16115;SDS011;8162;47.104;15.432;2023-02-15T02:54:43;19.83;;;14.93;;
16115;SDS011;8162;47.104;15.432;2023-02-15T02:57:52;29.67;;;18.00;;
16115;SDS011;8162;47.104;15.432;2023-02-15T03:00:57;23.50;;;15.57;;
16115;SDS011;8162;47.104;15.432;2023-02-15T03:04:35;22.10;;;15.90;;
16115;SDS011;8162;47.104;15.432;2023-02-15T03:07:29;28.13;;;17.50;;
16115;SDS011;8162;47.104;15.432;2023-02-15T03:10:31;24.27;;;17.73;;
16115;SDS011;8162;47.104;15.432;2023-02-15T03:13:34;22.80;;;14.50;;
16115;SDS011;8162;47.104;15.432;2023-02-15T03:16:36;26.00;;;16.53;;
16115;SDS011;8162;47.104;15.432;2023-02-15T03:19:38;27.63;;;17.97;;
16115;SDS011;8162;47.104;15.432;2023-02-15T03:22:41;25.60;;;16.93;;
16115;SDS011;8162;47.104;15.432;2023-02-15T03:25:44;26.43;;;18.33;;
16115;SDS011;8162;47.104;15.432;2023-02-15T03:28:47;23.70;;;17.17;;
16115;SDS011;8162;47.104;15.432;2023-02-15T03:31:53;22.43;;;16.43;;
16115;SDS011;8162;47.104;15.432;2023-02-15T03:34:56;23.10;;;16.47;;
16115;SDS011;8162;47.104;15.432;2023-02-15T03:37:58;24.63;;;17.27;;
16115;SDS011;8162;47.104;15.432;2023-02-15T03:40:59;23.87;;;16.70;;
16115;SDS011;8162;47.104;15.432;2023-02-15T03:44:13;21.13;;;15.03;;
16115;SDS011;8162;47.104;15.432;2023-02-15T03:47:21;19.27;;;15.00;;
16115;SDS011;8162;47.104;15.432;2023-02-15T03:50:24;21.67;;;15.17;;
16115;SDS011;8162;47.104;15.432;2023-02-15T03:53:45;24.03;;;15.67;;
16115;SDS011;8162;47.104;15.432;2023-02-15T03:56:48;24.57;;;17.47;;
16115;SDS011;8162;47.104;15.432;2023-02-15T04:00:13;20.87;;;15.57;;
16115;SDS011;8162;47.104;15.432;2023-02-15T04:03:39;22.87;;;16.07;;
16115;SDS011;8162;47.104;15.432;2023-02-15T04:06:41;21.53;;;16.30;;
16115;SDS011;8162;47.104;15.432;2023-02-15T04:09:42;27.23;;;18.07;;
16115;SDS011;8162;47.104;15.432;2023-02-15T04:13:01;24.97;;;19.17;;
16115;SDS011;8162;47.104;15.432;2023-02-15T04:16:02;27.33;;;18.07;;
16115;SDS011;8162;47.104;15.432;2023-02-15T04:19:03;23.50;;;17.30;;
16115;SDS011;8162;47.104;15.432;2023-02-15T04:22:23;25.93;;;16.43;;
16115;SDS011;8162;47.104;15.432;2023-02-15T04:25:42;23.23;;;16.90;;
16115;SDS011;8162;47.104;15.432;2023-02-15T04:28:43;30.20;;;18.43;;
16115;SDS011;8162;47.104;15.432;2023-02-15T04:31:44;19.60;;;15.13;;
16115;SDS011;8162;47.104;15.432;2023-02-15T04:34:45;26.30;;;17.47;;
16115;SDS011;8162;47.104;15.432;2023-02-15T04:37:46;21.53;;;14.43;;
16115;SDS011;8162;47.104;15.432;2023-02-15T04:40:51;25.17;;;16.83;;
16115;SDS011;8162;47.104;15.432;2023-02-15T04:43:52;20.97;;;15.23;;
16115;SDS011;8162;47.104;15.432;2023-02-15T04:46:53;27.13;;;17.60;;
16115;SDS011;8162;47.104;15.432;2023-02-15T04:49:54;24.47;;;15.60;;
16115;SDS011;8162;47.104;15.432;2023-02-15T04:52:55;25.37;;;16.47;;
16115;SDS011;8162;47.104;15.432;2023-02-15T04:55:56;22.40;;;14.93;;
16115;SDS011;8162;47.104;15.432;2023-02-15T04:58:58;22.63;;;16.37;;
16115;SDS011;8162;47.104;15.432;2023-02-15T05:01:59;27.03;;;18.67;;
16115;SDS011;8162;47.104;15.432;2023-02-15T05:05:00;26.23;;;17.00;;
16115;SDS011;8162;47.104;15.432;2023-02-15T05:08:01;22.77;;;16.17;;
16115;SDS011;8162;47.104;15.432;2023-02-15T05:11:02;28.60;;;19.67;;
16115;SDS011;8162;47.104;15.432;2023-02-15T05:14:03;28.33;;;19.57;;
16115;SDS011;8162;47.104;15.432;2023-02-15T05:17:04;28.17;;;19.40;;
16115;SDS011;8162;47.104;15.432;2023-02-15T05:20:05;29.80;;;19.83;;
16115;SDS011;8162;47.104;15.432;2023-02-15T05:23:07;30.23;;;19.13;;
16115;SDS011;8162;47.104;15.432;2023-02-15T05:26:11;26.37;;;17.60;;
16115;SDS011;8162;47.104;15.432;2023-02-15T05:29:31;27.67;;;19.03;;
16115;SDS011;8162;47.104;15.432;2023-02-15T05:32:32;25.97;;;17.90;;
16115;SDS011;8162;47.104;15.432;2023-02-15T05:35:34;25.47;;;17.03;;
16115;SDS011;8162;47.104;15.432;2023-02-15T05:38:35;29.33;;;18.40;;
16115;SDS011;8162;47.104;15.432;2023-02-15T05:41:39;22.80;;;15.27;;
16115;SDS011;8162;47.104;15.432;2023-02-15T05:44:40;28.53;;;19.03;;
16115;SDS011;8162;47.104;15.432;2023-02-15T05:47:41;28.93;;;18.13;;
16115;SDS011;8162;47.104;15.432;2023-02-15T05:50:42;25.30;;;17.83;;
16115;SDS011;8162;47.104;15.432;2023-02-15T05:53:44;25.30;;;15.67;;
16115;SDS011;8162;47.104;15.432;2023-02-15T05:56:45;22.90;;;16.83;;
16115;SDS011;8162;47.104;15.432;2023-02-15T05:59:46;29.43;;;16.73;;
16115;SDS011;8162;47.104;15.432;2023-02-15T06:02:47;27.13;;;17.10;;
16115;SDS011;8162;47.104;15.432;2023-02-15T06:05:49;30.07;;;17.67;;
16115;SDS011;8162;47.104;15.432;2023-02-15T06:08:50;26.17;;;18.80;;
16115;SDS011;8162;47.104;15.432;2023-02-15T06:11:51;30.83;;;20.17;;
16115;SDS011;8162;47.104;15.432;2023-02-15T06:14:52;28.60;;;19.53;;
16115;SDS011;8162;47.104;15.432;2023-02-15T06:17:53;31.77;;;19.97;;
16115;SDS011;8162;47.104;15.432;2023-02-15T06:20:54;28.80;;;19.73;;
16115;SDS011;8162;47.104;15.432;2023-02-15T06:23:55;28.33;;;18.20;;
16115;SDS011;8162;47.104;15.432;2023-02-15T06:26:56;28.27;;;18.53;;
16115;SDS011;8162;47.104;15.432;2023-02-15T06:29:57;34.87;;;20.60;;
16115;SDS011;8162;47.104;15.432;2023-02-15T06:32:58;23.03;;;18.13;;
16115;SDS011;8162;47.104;15.432;2023-02-15T06:35:59;29.03;;;19.40;;
16115;SDS011;8162;47.104;15.432;2023-02-15T06:39:01;29.97;;;19.80;;
16115;SDS011;8162;47.104;15.432;2023-02-15T06:42:03;32.40;;;18.80;;
16115;SDS011;8162;47.104;15.432;2023-02-15T06:45:04;27.23;;;18.83;;
16115;SDS011;8162;47.104;15.432;2023-02-15T06:48:05;27.80;;;17.93;;
16115;SDS011;8162;47.104;15.432;2023-02-15T06:51:08;23.10;;;16.47;;
16115;SDS011;8162;47.104;15.432;2023-02-15T06:54:09;30.47;;;19.43;;
16115;SDS011;8162;47.104;15.432;2023-02-15T06:57:10;30.50;;;19.67;;
16115;SDS011;8162;47.104;15.432;2023-02-15T07:00:11;30.60;;;18.27;;
16115;SDS011;8162;47.104;15.432;2023-02-15T07:03:13;26.53;;;17.80;;
16115;SDS011;8162;47.104;15.432;2023-02-15T07:06:14;29.93;;;18.80;;
16115;SDS011;8162;47.104;15.432;2023-02-15T07:09:15;22.27;;;15.83;;
16115;SDS011;8162;47.104;15.432;2023-02-15T07:12:17;26.13;;;16.47;;
16115;SDS011;8162;47.104;15.432;2023-02-15T07:15:36;28.83;;;18.57;;
16115;SDS011;8162;47.104;15.432;2023-02-15T07:18:38;28.03;;;18.73;;
16115;SDS011;8162;47.104;15.432;2023-02-15T07:21:39;24.87;;;17.23;;
16115;SDS011;8162;47.104;15.432;2023-02-15T07:24:40;27.43;;;17.23;;
16115;SDS011;8162;47.104;15.432;2023-02-15T07:27:41;29.53;;;19.33;;
16115;SDS011;8162;47.104;15.432;2023-02-15T07:30:43;25.20;;;17.30;;
16115;SDS011;8162;47.104;15.432;2023-02-15T07:33:44;30.53;;;19.37;;
16115;SDS011;8162;47.104;15.432;2023-02-15T07:36:46;32.87;;;20.00;;
16115;SDS011;8162;47.104;15.432;2023-02-15T07:39:47;32.70;;;20.83;;
16115;SDS011;8162;47.104;15.432;2023-02-15T07:42:48;31.63;;;22.03;;
16115;SDS011;8162;47.104;15.432;2023-02-15T07:45:49;34.67;;;22.10;;
16115;SDS011;8162;47.104;15.432;2023-02-15T07:48:50;36.20;;;22.83;;
16115;SDS011;8162;47.104;15.432;2023-02-15T07:51:51;33.10;;;20.57;;
16115;SDS011;8162;47.104;15.432;2023-02-15T07:54:52;33.47;;;21.93;;
16115;SDS011;8162;47.104;15.432;2023-02-15T07:57:54;27.87;;;19.67;;
16115;SDS011;8162;47.104;15.432;2023-02-15T08:00:55;35.50;;;21.93;;
16115;SDS011;8162;47.104;15.432;2023-02-15T08:03:56;26.63;;;18.53;;
16115;SDS011;8162;47.104;15.432;2023-02-15T08:06:58;32.97;;;21.77;;
16115;SDS011;8162;47.104;15.432;2023-02-15T08:09:59;34.10;;;22.10;;
16115;SDS011;8162;47.104;15.432;2023-02-15T08:13:00;34.50;;;22.53;;
16115;SDS011;8162;47.104;15.432;2023-02-15T08:16:01;35.03;;;23.33;;
16115;SDS011;8162;47.104;15.432;2023-02-15T08:19:03;32.10;;;21.63;;
16115;SDS011;8162;47.104;15.432;2023-02-15T08:22:05;33.40;;;22.13;;
16115;SDS011;8162;47.104;15.432;2023-02-15T08:25:07;27.43;;;19.40;;
16115;SDS011;8162;47.104;15.432;2023-02-15T08:28:08;32.03;;;20.93;;
16115;SDS011;8162;47.104;15.432;2023-02-15T08:31:10;32.07;;;21.10;;
16115;SDS011;8162;47.104;15.432;2023-02-15T08:34:13;32.50;;;22.00;;
16115;SDS011;8162;47.104;15.432;2023-02-15T08:37:14;28.17;;;19.00;;
16115;SDS011;8162;47.104;15.432;2023-02-15T08:40:15;33.50;;;23.07;;
16115;SDS011;8162;47.104;15.432;2023-02-15T08:43:16;31.93;;;21.50;;
16115;SDS011;8162;47.104;15.432;2023-02-15T08:46:17;32.63;;;20.93;;
16115;SDS011;8162;47.104;15.432;2023-02-15T08:49:19;35.40;;;23.37;;
16115;SDS011;8162;47.104;15.432;2023-02-15T08:52:21;30.87;;;22.23;;
16115;SDS011;8162;47.104;15.432;2023-02-15T08:55:22;34.50;;;24.47;;
16115;SDS011;8162;47.104;15.432;2023-02-15T08:58:23;30.33;;;21.10;;
16115;SDS011;8162;47.104;15.432;2023-02-15T09:01:28;34.97;;;23.27;;
16115;SDS011;8162;47.104;15.432;2023-02-15T09:04:29;37.97;;;25.00;;
16115;SDS011;8162;47.104;15.432;2023-02-15T09:07:30;33.80;;;23.50;;
16115;SDS011;8162;47.104;15.432;2023-02-15T09:10:31;30.00;;;21.10;;
16115;SDS011;8162;47.104;15.432;2023-02-15T09:13:33;32.37;;;22.53;;
16115;SDS011;8162;47.104;15.432;2023-02-15T09:16:34;34.87;;;23.80;;
16115;SDS011;8162;47.104;15.432;2023-02-15T09:19:36;31.33;;;20.77;;
16115;SDS011;8162;47.104;15.432;2023-02-15T09:22:37;29.83;;;19.93;;
16115;SDS011;8162;47.104;15.432;2023-02-15T09:25:38;35.00;;;24.20;;
16115;SDS011;8162;47.104;15.432;2023-02-15T09:28:39;27.00;;;19.93;;
16115;SDS011;8162;47.104;15.432;2023-02-15T09:31:41;33.17;;;23.90;;
16115;SDS011;8162;47.104;15.432;2023-02-15T09:34:44;36.73;;;26.73;;
16115;SDS011;8162;47.104;15.432;2023-02-15T09:37:45;37.53;;;25.07;;
16115;SDS011;8162;47.104;15.432;2023-02-15T09:40:51;30.40;;;21.50;;
16115;SDS011;8162;47.104;15.432;2023-02-15T09:59:51;32.87;;;25.30;;
16115;SDS011;8162;47.104;15.432;2023-02-15T10:27:51;35.80;;;24.80;;
16115;SDS011;8162;47.104;15.432;2023-02-15T10:31:18;33.73;;;24.50;;
16115;SDS011;8162;47.104;15.432;2023-02-15T10:40:37;39.47;;;24.80;;
16115;SDS011;8162;47.104;15.432;2023-02-15T10:44:05;36.30;;;24.13;;
16115;SDS011;8162;47.104;15.432;2023-02-15T11:00:10;40.43;;;27.77;;
16115;SDS011;8162;47.104;15.432;2023-02-15T11:03:30;43.43;;;27.20;;
16115;SDS011;8162;47.104;15.432;2023-02-15T11:06:34;39.60;;;25.17;;
16115;SDS011;8162;47.104;15.432;2023-02-15T11:09:37;39.73;;;27.47;;
16115;SDS011;8162;47.104;15.432;2023-02-15T11:12:40;39.57;;;26.80;;
16115;SDS011;8162;47.104;15.432;2023-02-15T11:15:48;39.23;;;27.13;;
16115;SDS011;8162;47.104;15.432;2023-02-15T11:18:58;42.07;;;28.67;;
16115;SDS011;8162;47.104;15.432;2023-02-15T11:22:09;42.93;;;27.73;;
16115;SDS011;8162;47.104;15.432;2023-02-15T11:25:16;35.57;;;24.80;;
16115;SDS011;8162;47.104;15.432;2023-02-15T11:28:19;40.83;;;27.97;;
16115;SDS011;8162;47.104;15.432;2023-02-15T11:31:23;39.50;;;26.43;;
16115;SDS011;8162;47.104;15.432;2023-02-15T11:34:30;39.67;;;28.70;;
16115;SDS011;8162;47.104;15.432;2023-02-15T11:40:49;41.83;;;28.37;;
16115;SDS011;8162;47.104;15.432;2023-02-15T11:44:00;38.27;;;26.67;;
16115;SDS011;8162;47.104;15.432;2023-02-15T11:47:02;38.97;;;25.80;;
16115;SDS011;8162;47.104;15.432;2023-02-15T11:50:03;44.13;;;28.40;;
16115;SDS011;8162;47.104;15.432;2023-02-15T11:53:07;38.77;;;27.43;;
16115;SDS011;8162;47.104;15.432;2023-02-15T11:56:14;40.17;;;27.37;;
16115;SDS011;8162;47.104;15.432;2023-02-15T11:59:20;42.03;;;29.27;;
16115;SDS011;8162;47.104;15.432;2023-02-15T12:02:22;37.97;;;28.17;;
16115;SDS011;8162;47.104;15.432;2023-02-15T12:05:26;38.17;;;28.47;;
16115;SDS011;8162;47.104;15.432;2023-02-15T12:08:33;44.03;;;30.87;;
16115;SDS011;8162;47.104;15.432;2023-02-15T12:11:36;43.83;;;29.10;;
16115;SDS011;8162;47.104;15.432;2023-02-15T12:14:48;36.30;;;27.33;;
16115;SDS011;8162;47.104;15.432;2023-02-15T12:17:52;43.07;;;28.87;;
16115;SDS011;8162;47.104;15.432;2023-02-15T12:20:57;41.30;;;29.47;;
16115;SDS011;8162;47.104;15.432;2023-02-15T12:24:18;42.93;;;29.37;;
16115;SDS011;8162;47.104;15.432;2023-02-15T12:27:20;42.80;;;28.40;;
16115;SDS011;8162;47.104;15.432;2023-02-15T12:33:30;39.20;;;28.83;;
16115;SDS011;8162;47.104;15.432;2023-02-15T12:36:32;41.27;;;28.30;;
16115;SDS011;8162;47.104;15.432;2023-02-15T12:40:30;41.63;;;28.50;;
16115;SDS011;8162;47.104;15.432;2023-02-15T12:43:12;42.57;;;29.30;;
16115;SDS011;8162;47.104;15.432;2023-02-15T12:46:25;41.20;;;27.17;;
16115;SDS011;8162;47.104;15.432;2023-02-15T12:49:28;40.80;;;27.97;;
16115;SDS011;8162;47.104;15.432;2023-02-15T12:52:29;40.53;;;28.27;;
16115;SDS011;8162;47.104;15.432;2023-02-15T12:55:30;41.43;;;29.47;;
16115;SDS011;8162;47.104;15.432;2023-02-15T13:01:33;41.77;;;28.90;;
16115;SDS011;8162;47.104;15.432;2023-02-15T13:04:34;39.77;;;27.73;;
16115;SDS011;8162;47.104;15.432;2023-02-15T13:07:35;36.77;;;26.83;;
16115;SDS011;8162;47.104;15.432;2023-02-15T13:10:42;43.07;;;30.77;;
16115;SDS011;8162;47.104;15.432;2023-02-15T13:13:57;41.00;;;30.57;;
16115;SDS011;8162;47.104;15.432;2023-02-15T13:17:00;46.80;;;30.97;;
16115;SDS011;8162;47.104;15.432;2023-02-15T13:20:05;41.20;;;30.13;;
16115;SDS011;8162;47.104;15.432;2023-02-15T13:23:16;45.60;;;30.60;;
16115;SDS011;8162;47.104;15.432;2023-02-15T13:26:20;43.33;;;28.83;;
16115;SDS011;8162;47.104;15.432;2023-02-15T13:29:23;47.63;;;30.30;;
16115;SDS011;8162;47.104;15.432;2023-02-15T13:32:35;38.87;;;29.37;;
16115;SDS011;8162;47.104;15.432;2023-02-15T13:35:40;36.27;;;26.83;;
16115;SDS011;8162;47.104;15.432;2023-02-15T13:45:08;41.20;;;29.17;;
16115;SDS011;8162;47.104;15.432;2023-02-15T13:48:34;38.60;;;28.90;;
16115;SDS011;8162;47.104;15.432;2023-02-15T13:58:26;43.27;;;29.80;;
16115;SDS011;8162;47.104;15.432;2023-02-15T14:01:39;41.07;;;28.43;;
16115;SDS011;8162;47.104;15.432;2023-02-15T14:18:01;36.33;;;26.57;;
16115;SDS011;8162;47.104;15.432;2023-02-15T14:28:08;34.80;;;27.63;;
16115;SDS011;8162;47.104;15.432;2023-02-15T14:31:11;39.50;;;29.80;;
16115;SDS011;8162;47.104;15.432;2023-02-15T14:34:18;41.10;;;31.17;;
16115;SDS011;8162;47.104;15.432;2023-02-15T14:40:59;37.00;;;29.13;;
16115;SDS011;8162;47.104;15.432;2023-02-15T14:44:11;42.40;;;30.63;;
16115;SDS011;8162;47.104;15.432;2023-02-15T14:47:28;35.30;;;27.17;;
16115;SDS011;8162;47.104;15.432;2023-02-15T14:53:38;37.87;;;29.27;;
16115;SDS011;8162;47.104;15.432;2023-02-15T14:56:39;34.43;;;26.37;;
16115;SDS011;8162;47.104;15.432;2023-02-15T14:59:43;39.13;;;29.60;;
16115;SDS011;8162;47.104;15.432;2023-02-15T15:02:47;35.43;;;26.73;;
16115;SDS011;8162;47.104;15.432;2023-02-15T15:05:50;34.23;;;26.60;;
16115;SDS011;8162;47.104;15.432;2023-02-15T15:08:52;40.03;;;29.77;;
16115;SDS011;8162;47.104;15.432;2023-02-15T15:12:41;35.50;;;27.27;;
16115;SDS011;8162;47.104;15.432;2023-02-15T15:18:43;37.40;;;27.97;;
16115;SDS011;8162;47.104;15.432;2023-02-15T15:21:54;33.33;;;26.33;;
16115;SDS011;8162;47.104;15.432;2023-02-15T15:24:59;35.83;;;26.90;;
16115;SDS011;8162;47.104;15.432;2023-02-15T15:28:00;39.70;;;29.40;;
16115;SDS011;8162;47.104;15.432;2023-02-15T15:31:04;36.03;;;27.67;;
16115;SDS011;8162;47.104;15.432;2023-02-15T15:50:25;39.10;;;27.97;;
16115;SDS011;8162;47.104;15.432;2023-02-15T15:53:26;31.80;;;22.97;;
16115;SDS011;8162;47.104;15.432;2023-02-15T15:56:32;35.47;;;25.03;;
16115;SDS011;8162;47.104;15.432;2023-02-15T15:59:34;34.60;;;24.07;;
16115;SDS011;8162;47.104;15.432;2023-02-15T16:02:35;32.90;;;23.10;;
16115;SDS011;8162;47.104;15.432;2023-02-15T16:05:50;40.97;;;25.40;;
16115;SDS011;8162;47.104;15.432;2023-02-15T16:08:55;37.90;;;24.10;;
16115;SDS011;8162;47.104;15.432;2023-02-15T16:11:56;32.00;;;22.50;;
16115;SDS011;8162;47.104;15.432;2023-02-15T16:15:01;37.57;;;23.50;;
16115;SDS011;8162;47.104;15.432;2023-02-15T16:18:03;37.97;;;26.80;;
16115;SDS011;8162;47.104;15.432;2023-02-15T16:21:04;41.80;;;23.70;;
16115;SDS011;8162;47.104;15.432;2023-02-15T16:30:26;39.87;;;27.23;;
16115;SDS011;8162;47.104;15.432;2023-02-15T16:33:34;41.03;;;26.87;;
16115;SDS011;8162;47.104;15.432;2023-02-15T16:36:36;36.97;;;25.20;;
16115;SDS011;8162;47.104;15.432;2023-02-15T16:39:40;40.13;;;24.77;;
16115;SDS011;8162;47.104;15.432;2023-02-15T16:42:42;37.90;;;26.00;;
16115;SDS011;8162;47.104;15.432;2023-02-15T16:45:43;44.83;;;26.70;;
16115;SDS011;8162;47.104;15.432;2023-02-15T16:48:45;41.67;;;25.47;;
16115;SDS011;8162;47.104;15.432;2023-02-15T16:51:57;36.63;;;25.00;;
16115;SDS011;8162;47.104;15.432;2023-02-15T16:55:00;44.07;;;26.97;;
16115;SDS011;8162;47.104;15.432;2023-02-15T16:58:04;47.60;;;28.70;;
16115;SDS011;8162;47.104;15.432;2023-02-15T17:01:07;45.67;;;27.57;;
16115;SDS011;8162;47.104;15.432;2023-02-15T17:04:11;40.47;;;23.80;;
16115;SDS011;8162;47.104;15.432;2023-02-15T17:07:17;39.03;;;24.80;;
16115;SDS011;8162;47.104;15.432;2023-02-15T17:10:26;40.27;;;25.60;;
16115;SDS011;8162;47.104;15.432;2023-02-15T17:13:29;40.10;;;24.03;;
16115;SDS011;8162;47.104;15.432;2023-02-15T17:16:31;48.57;;;26.43;;
16115;SDS011;8162;47.104;15.432;2023-02-15T17:19:40;46.07;;;29.33;;
16115;SDS011;8162;47.104;15.432;2023-02-15T17:22:43;50.67;;;28.13;;
16115;SDS011;8162;47.104;15.432;2023-02-15T17:25:44;47.57;;;27.43;;
16115;SDS011;8162;47.104;15.432;2023-02-15T17:28:49;52.13;;;31.13;;
16115;SDS011;8162;47.104;15.432;2023-02-15T17:31:51;49.87;;;30.33;;
16115;SDS011;8162;47.104;15.432;2023-02-15T17:35:01;46.23;;;28.40;;
16115;SDS011;8162;47.104;15.432;2023-02-15T17:38:18;42.20;;;26.27;;
16115;SDS011;8162;47.104;15.432;2023-02-15T17:41:20;46.83;;;28.83;;
16115;SDS011;8162;47.104;15.432;2023-02-15T17:44:21;45.03;;;28.03;;
16115;SDS011;8162;47.104;15.432;2023-02-15T17:47:23;51.03;;;29.30;;
16115;SDS011;8162;47.104;15.432;2023-02-15T17:50:27;48.90;;;29.67;;
16115;SDS011;8162;47.104;15.432;2023-02-15T17:53:28;49.17;;;28.87;;
16115;SDS011;8162;47.104;15.432;2023-02-15T17:56:30;48.47;;;29.17;;
16115;SDS011;8162;47.104;15.432;2023-02-15T17:59:31;47.90;;;27.50;;
16115;SDS011;8162;47.104;15.432;2023-02-15T18:02:33;45.07;;;28.37;;
16115;SDS011;8162;47.104;15.432;2023-02-15T18:05:53;43.97;;;28.40;;
16115;SDS011;8162;47.104;15.432;2023-02-15T18:09:14;42.90;;;26.03;;
16115;SDS011;8162;47.104;15.432;2023-02-15T18:12:34;49.33;;;27.37;;
16115;SDS011;8162;47.104;15.432;2023-02-15T18:15:37;46.27;;;26.87;;
16115;SDS011;8162;47.104;15.432;2023-02-15T18:18:40;50.13;;;29.33;;
16115;SDS011;8162;47.104;15.432;2023-02-15T18:21:42;47.83;;;28.63;;
16115;SDS011;8162;47.104;15.432;2023-02-15T18:24:44;46.07;;;29.10;;
16115;SDS011;8162;47.104;15.432;2023-02-15T18:27:46;50.37;;;29.07;;
16115;SDS011;8162;47.104;15.432;2023-02-15T18:30:48;46.37;;;28.50;;
16115;SDS011;8162;47.104;15.432;2023-02-15T18:33:52;49.13;;;28.87;;
16115;SDS011;8162;47.104;15.432;2023-02-15T18:36:54;51.60;;;29.67;;
16115;SDS011;8162;47.104;15.432;2023-02-15T18:39:56;47.77;;;29.57;;
16115;SDS011;8162;47.104;15.432;2023-02-15T18:42:57;53.60;;;30.37;;
16115;SDS011;8162;47.104;15.432;2023-02-15T18:45:59;44.30;;;28.83;;
16115;SDS011;8162;47.104;15.432;2023-02-15T18:49:00;47.27;;;29.37;;
16115;SDS011;8162;47.104;15.432;2023-02-15T18:52:01;45.40;;;26.57;;
16115;SDS011;8162;47.104;15.432;2023-02-15T18:55:03;47.20;;;29.10;;
16115;SDS011;8162;47.104;15.432;2023-02-15T18:58:13;49.47;;;29.50;;
16115;SDS011;8162;47.104;15.432;2023-02-15T19:01:16;45.23;;;28.77;;
16115;SDS011;8162;47.104;15.432;2023-02-15T19:04:19;49.07;;;27.63;;
16115;SDS011;8162;47.104;15.432;2023-02-15T19:07:22;50.80;;;28.50;;
16115;SDS011;8162;47.104;15.432;2023-02-15T19:10:29;44.90;;;28.83;;
16115;SDS011;8162;47.104;15.432;2023-02-15T19:13:32;49.13;;;29.60;;
16115;SDS011;8162;47.104;15.432;2023-02-15T19:16:34;50.03;;;28.43;;
16115;SDS011;8162;47.104;15.432;2023-02-15T19:19:36;49.03;;;29.93;;
16115;SDS011;8162;47.104;15.432;2023-02-15T19:22:38;51.23;;;29.27;;
16115;SDS011;8162;47.104;15.432;2023-02-15T19:25:41;50.67;;;29.23;;
16115;SDS011;8162;47.104;15.432;2023-02-15T19:28:44;49.77;;;29.97;;
16115;SDS011;8162;47.104;15.432;2023-02-15T19:31:47;47.50;;;27.80;;
16115;SDS011;8162;47.104;15.432;2023-02-15T19:34:48;58.07;;;31.10;;
16115;SDS011;8162;47.104;15.432;2023-02-15T19:37:56;49.50;;;30.33;;
16115;SDS011;8162;47.104;15.432;2023-02-15T19:41:01;50.57;;;28.13;;
16115;SDS011;8162;47.104;15.432;2023-02-15T19:44:06;49.43;;;29.27;;
16115;SDS011;8162;47.104;15.432;2023-02-15T19:47:12;51.90;;;29.37;;
16115;SDS011;8162;47.104;15.432;2023-02-15T19:50:14;46.53;;;29.20;;
16115;SDS011;8162;47.104;15.432;2023-02-15T19:53:20;51.20;;;28.60;;
16115;SDS011;8162;47.104;15.432;2023-02-15T19:56:23;44.10;;;27.20;;
16115;SDS011;8162;47.104;15.432;2023-02-15T19:59:27;47.43;;;28.60;;
16115;SDS011;8162;47.104;15.432;2023-02-15T20:02:29;51.93;;;30.43;;
16115;SDS011;8162;47.104;15.432;2023-02-15T20:05:31;53.10;;;30.73;;
16115;SDS011;8162;47.104;15.432;2023-02-15T20:08:37;52.20;;;28.90;;
16115;SDS011;8162;47.104;15.432;2023-02-15T20:11:41;53.83;;;30.57;;
16115;SDS011;8162;47.104;15.432;2023-02-15T20:14:44;49.37;;;29.53;;
16115;SDS011;8162;47.104;15.432;2023-02-15T20:17:45;50.03;;;29.93;;
16115;SDS011;8162;47.104;15.432;2023-02-15T20:20:48;48.73;;;30.13;;
16115;SDS011;8162;47.104;15.432;2023-02-15T20:23:50;45.50;;;29.03;;
16115;SDS011;8162;47.104;15.432;2023-02-15T20:26:52;53.13;;;31.27;;
16115;SDS011;8162;47.104;15.432;2023-02-15T20:29:54;49.53;;;29.17;;